createdAt,value
2022-08-07T00:01:44.219Z,51.42
2022-08-07T00:04:24.466Z,43.97
2022-08-07T00:06:54.011Z,47.67
2022-08-07T00:09:35.427Z,71.80
2022-08-07T00:12:06.023Z,48.80
2022-08-07T00:14:38.462Z,55.35
2022-08-07T00:17:13.453Z,50.38
2022-08-07T00:20:01.498Z,56.63
2022-08-07T00:22:35.426Z,51.78
2022-08-07T00:25:15.854Z,53.30
2022-08-07T00:27:52.796Z,53.83
2022-08-07T00:30:27.296Z,55.85
2022-08-07T00:32:59.650Z,60.50
2022-08-07T00:35:30.492Z,49.95
2022-08-07T00:38:00.421Z,60.55
2022-08-07T00:40:39.044Z,53.38
2022-08-07T00:43:58.671Z,54.90
2022-08-07T00:46:02.015Z,58.38
2022-08-07T00:48:32.667Z,48.72
2022-08-07T00:51:03.156Z,56.28
2022-08-07T00:53:39.046Z,50.38
2022-08-07T00:56:21.086Z,54.08
2022-08-07T00:58:50.485Z,54.97
2022-08-07T01:01:21.463Z,54.13
2022-08-07T01:03:55.954Z,51.42
2022-08-07T01:06:30.701Z,50.97
2022-08-07T01:09:02.803Z,49.67
2022-08-07T01:12:10.025Z,50.40
2022-08-07T01:14:28.380Z,48.25
2022-08-07T01:17:00.618Z,55.95
2022-08-07T01:19:35.087Z,47.20
2022-08-07T01:22:16.237Z,55.78
2022-08-07T01:24:53.497Z,49.97
2022-08-07T01:27:24.802Z,50.15
2022-08-07T01:30:03.737Z,60.92
2022-08-07T01:32:33.424Z,50.20
2022-08-07T01:35:04.746Z,48.95
2022-08-07T01:37:35.682Z,49.38
2022-08-07T01:40:14.969Z,50.17
2022-08-07T01:42:58.507Z,45.53
2022-08-07T01:45:37.112Z,48.53
2022-08-07T01:48:20.459Z,48.97
2022-08-07T01:51:24.282Z,51.22
2022-08-07T01:54:08.529Z,55.85
2022-08-07T01:56:50.437Z,48.35
2022-08-07T01:59:30.804Z,50.08
2022-08-07T02:02:10.609Z,44.70
2022-08-07T02:04:55.874Z,43.45
2022-08-07T02:07:36.228Z,43.28
2022-08-07T02:10:27.379Z,47.95
2022-08-07T02:13:02.523Z,43.72
2022-08-07T02:15:41.345Z,47.33
2022-08-07T02:18:13.877Z,43.50
2022-08-07T02:20:48.542Z,48.45
2022-08-07T02:23:25.063Z,40.35
2022-08-07T02:26:31.043Z,40.88
2022-08-07T02:28:49.659Z,48.20
2022-08-07T02:31:28.831Z,45.95
2022-08-07T02:34:02.895Z,46.05
2022-08-07T02:36:38.177Z,54.03
2022-08-07T02:39:43.267Z,44.25
2022-08-07T02:42:09.848Z,37.88
2022-08-07T02:44:49.952Z,43.95
2022-08-07T02:47:25.287Z,42.75
2022-08-07T02:50:03.946Z,45.60
2022-08-07T02:52:41.570Z,43.90
2022-08-07T02:55:28.801Z,44.95
2022-08-07T02:58:15.745Z,40.55
2022-08-07T03:00:46.814Z,44.70
2022-08-07T03:03:22.598Z,58.00
2022-08-07T03:05:57.463Z,51.90
2022-08-07T03:08:29.477Z,46.30
2022-08-07T03:11:02.564Z,45.55
2022-08-07T03:13:49.774Z,48.33
2022-08-07T03:16:23.074Z,37.75
2022-08-07T03:18:59.451Z,39.78
2022-08-07T03:21:32.970Z,46.30
2022-08-07T03:24:18.027Z,42.05
2022-08-07T03:26:58.986Z,38.60
2022-08-07T03:29:44.676Z,39.63
2022-08-07T03:32:34.961Z,39.67
2022-08-07T03:35:17.362Z,39.08
2022-08-07T03:37:55.975Z,40.17
2022-08-07T03:40:36.571Z,40.13
2022-08-07T03:43:14.569Z,38.47
2022-08-07T03:45:51.034Z,38.95
2022-08-07T03:48:25.927Z,38.25
2022-08-07T03:50:57.892Z,41.95
2022-08-07T03:54:01.859Z,41.42
2022-08-07T03:56:33.572Z,34.47
2022-08-07T03:59:13.444Z,36.63
2022-08-07T04:01:54.686Z,35.75
2022-08-07T04:04:26.506Z,33.15
2022-08-07T04:07:01.050Z,34.40
2022-08-07T04:09:45.324Z,36.38
2022-08-07T04:12:28.460Z,31.10
2022-08-07T04:15:00.797Z,34.95
2022-08-07T04:18:58.298Z,33.65
2022-08-07T04:20:25.838Z,31.90
2022-08-07T04:23:01.426Z,34.65
2022-08-07T04:25:39.303Z,33.10
2022-08-07T04:28:13.312Z,31.52
2022-08-07T04:33:32.118Z,30.00
2022-08-07T04:36:09.118Z,33.30
2022-08-07T04:38:40.698Z,33.28
2022-08-07T04:41:18.150Z,35.63
2022-08-07T04:44:11.722Z,35.80
2022-08-07T04:47:04.173Z,34.30
2022-08-07T04:49:57.887Z,31.73
2022-08-07T04:52:51.415Z,41.42
2022-08-07T04:58:11.902Z,34.30
2022-08-07T04:59:07.712Z,37.55
2022-08-07T05:01:36.723Z,33.92
2022-08-07T05:04:17.946Z,32.00
2022-08-07T05:07:20.466Z,37.22
2022-08-07T05:10:00.985Z,49.38
2022-08-07T05:12:51.331Z,36.80
2022-08-07T05:15:31.896Z,28.83
2022-08-07T05:18:10.357Z,29.30
2022-08-07T05:20:49.150Z,29.75
2022-08-07T05:23:29.828Z,30.48
2022-08-07T05:26:13.869Z,30.63
2022-08-07T05:28:56.084Z,30.65
2022-08-07T05:31:37.804Z,39.13
2022-08-07T05:34:15.755Z,29.33
2022-08-07T05:36:52.817Z,30.60
2022-08-07T05:40:16.750Z,40.85
2022-08-07T05:42:40.092Z,35.70
2022-08-07T05:45:46.122Z,32.78
2022-08-07T05:48:07.856Z,31.75
2022-08-07T05:50:42.902Z,31.58
2022-08-07T05:54:14.151Z,39.83
2022-08-07T05:56:10.089Z,31.80
2022-08-07T05:58:52.483Z,28.83
2022-08-07T06:01:34.859Z,30.67
2022-08-07T06:04:09.648Z,31.85
2022-08-07T06:06:46.442Z,26.63
2022-08-07T06:09:20.121Z,33.03
2022-08-07T06:11:52.453Z,31.80
2022-08-07T06:14:28.804Z,31.42
2022-08-07T06:17:07.058Z,33.50
2022-08-07T06:19:47.796Z,32.47
2022-08-07T06:22:38.496Z,30.08
2022-08-07T06:25:27.058Z,52.75
2022-08-07T06:28:07.586Z,54.15
2022-08-07T06:30:42.711Z,30.65
2022-08-07T06:33:20.594Z,27.33
2022-08-07T06:36:12.123Z,41.95
2022-08-07T06:38:58.816Z,31.52
2022-08-07T06:42:01.252Z,30.55
2022-08-07T06:45:17.960Z,40.92
2022-08-07T06:47:58.779Z,69.57
2022-08-07T06:50:47.838Z,92.63
2022-08-07T06:55:27.153Z,28.38
2022-08-07T06:56:16.241Z,92.75
2022-08-07T07:00:12.530Z,52.90
2022-08-07T07:01:48.809Z,33.75
2022-08-07T07:04:28.091Z,52.03
2022-08-07T07:07:10.771Z,44.10
2022-08-07T07:09:50.724Z,33.22
2022-08-07T07:12:36.511Z,35.42
2022-08-07T07:15:24.238Z,43.25
2022-08-07T07:18:05.644Z,46.47
2022-08-07T07:20:42.924Z,89.03
2022-08-07T07:24:08.377Z,46.72
2022-08-07T07:26:33.869Z,44.83
2022-08-07T07:29:56.955Z,52.97
2022-08-07T07:31:57.974Z,43.30
2022-08-07T07:34:33.208Z,39.35
2022-08-07T07:37:21.635Z,82.15
2022-08-07T07:40:01.406Z,45.20
2022-08-07T07:42:33.449Z,68.43
2022-08-07T07:45:05.607Z,49.73
2022-08-07T07:47:51.970Z,49.35
2022-08-07T07:50:33.160Z,134.27
2022-08-07T07:53:13.686Z,119.25
2022-08-07T07:55:57.870Z,52.45
2022-08-07T07:58:36.988Z,61.65
2022-08-07T08:02:03.684Z,55.45
2022-08-07T08:04:11.529Z,56.08
2022-08-07T08:06:50.863Z,52.67
2022-08-07T08:09:29.120Z,62.80
2022-08-07T08:12:05.204Z,69.68
2022-08-07T08:14:37.235Z,68.43
2022-08-07T08:17:32.483Z,56.42
2022-08-07T08:20:17.733Z,62.80
2022-08-07T08:23:14.239Z,45.10
2022-08-07T08:26:07.198Z,59.13
2022-08-07T08:28:44.860Z,48.45
2022-08-07T08:31:59.010Z,57.90
2022-08-07T08:34:27.133Z,65.47
2022-08-07T08:36:59.893Z,47.90
2022-08-07T08:39:39.339Z,49.97
2022-08-07T08:42:30.161Z,47.38
2022-08-07T08:45:15.554Z,35.55
2022-08-07T08:47:55.470Z,58.00
2022-08-07T08:50:39.476Z,52.22
2022-08-07T08:53:21.940Z,54.03
2022-08-07T08:56:03.898Z,55.42
2022-08-07T08:58:44.466Z,52.15
2022-08-07T09:01:21.866Z,50.63
2022-08-07T09:04:02.844Z,46.13
2022-08-07T09:06:50.685Z,45.70
2022-08-07T09:09:44.739Z,49.70
2022-08-07T09:12:39.095Z,45.33
2022-08-07T09:16:22.881Z,46.45
2022-08-07T09:18:58.515Z,42.65
2022-08-07T09:22:10.155Z,48.40
2022-08-07T09:24:59.687Z,47.95
2022-08-07T09:28:00.515Z,38.47
2022-08-07T09:30:46.441Z,45.38
2022-08-07T09:33:57.072Z,67.43
2022-08-07T09:36:43.107Z,61.38
2022-08-07T09:39:54.016Z,51.97
2022-08-07T09:42:41.907Z,40.72
2022-08-07T09:47:49.843Z,58.00
2022-08-07T09:48:29.626Z,42.03
2022-08-07T09:51:14.782Z,50.58
2022-08-07T09:54:04.986Z,43.00
2022-08-07T10:00:07.940Z,51.58
2022-08-07T10:04:05.537Z,46.30
2022-08-07T10:06:55.603Z,68.53
2022-08-07T10:10:01.062Z,51.40
2022-08-07T10:12:59.687Z,65.70
2022-08-07T10:15:50.245Z,59.25
2022-08-07T10:18:44.499Z,48.00
2022-08-07T10:22:16.332Z,49.90
2022-08-07T10:25:22.569Z,56.35
2022-08-07T10:28:24.340Z,43.83
2022-08-07T10:31:12.094Z,44.70
2022-08-07T10:34:06.218Z,44.38
2022-08-07T10:37:12.480Z,39.00
2022-08-07T10:40:05.641Z,44.15
2022-08-07T10:42:43.982Z,47.72
2022-08-07T10:45:48.030Z,80.22
2022-08-07T10:48:41.554Z,55.72
2022-08-07T10:51:39.712Z,43.00
2022-08-07T10:54:18.474Z,67.88
2022-08-07T10:57:07.982Z,57.90
2022-08-07T11:00:08.839Z,58.70
2022-08-07T11:02:49.354Z,49.83
2022-08-07T11:05:50.624Z,50.38
2022-08-07T11:08:33.549Z,55.15
2022-08-07T11:11:10.306Z,59.38
2022-08-07T11:14:46.197Z,58.63
2022-08-07T11:16:49.346Z,56.25
2022-08-07T11:19:30.666Z,45.88
2022-08-07T11:22:26.572Z,46.80
2022-08-07T11:25:10.476Z,59.10
2022-08-07T11:28:02.585Z,66.75
2022-08-07T11:30:54.391Z,56.25
2022-08-07T11:33:54.235Z,57.28
2022-08-07T11:36:49.658Z,52.50
2022-08-07T11:40:00.023Z,54.42
2022-08-07T11:42:46.236Z,38.78
2022-08-07T11:45:40.673Z,49.72
2022-08-07T11:48:44.160Z,55.08
2022-08-07T11:51:46.816Z,46.80
2022-08-07T11:54:46.506Z,47.75
2022-08-07T11:58:00.640Z,62.53
2022-08-07T12:00:39.399Z,56.60
2022-08-07T12:03:50.824Z,50.85
2022-08-07T12:06:51.781Z,52.35
2022-08-07T12:09:37.621Z,45.95
2022-08-07T12:12:12.035Z,49.42
2022-08-07T12:14:55.352Z,44.78
2022-08-07T12:17:37.430Z,41.67
2022-08-07T12:20:30.103Z,45.40
2022-08-07T12:23:37.293Z,48.22
2022-08-07T12:26:28.569Z,46.35
2022-08-07T12:29:11.302Z,69.85
2022-08-07T12:31:53.097Z,78.75
2022-08-07T12:34:36.060Z,62.45
2022-08-07T12:37:08.119Z,47.85
2022-08-07T12:39:51.617Z,86.32
2022-08-07T12:42:32.062Z,48.67
2022-08-07T12:45:10.394Z,78.97
2022-08-07T12:47:54.896Z,61.63
2022-08-07T12:50:48.985Z,49.67
2022-08-07T12:53:30.255Z,61.25
2022-08-07T12:56:30.466Z,44.00
2022-08-07T12:59:08.108Z,51.80
2022-08-07T13:01:53.851Z,57.67
2022-08-07T13:04:49.084Z,54.13
2022-08-07T13:08:13.920Z,51.45
2022-08-07T13:11:01.158Z,54.00
2022-08-07T13:13:50.300Z,59.72
2022-08-07T13:16:30.840Z,58.22
2022-08-07T13:19:21.896Z,63.28
2022-08-07T13:22:19.779Z,46.30
2022-08-07T13:25:03.012Z,58.85
2022-08-07T13:28:11.458Z,57.78
2022-08-07T13:30:40.162Z,56.85
2022-08-07T13:34:30.213Z,54.87
2022-08-07T13:36:33.396Z,71.25
2022-08-07T13:39:48.967Z,62.03
2022-08-07T13:42:10.568Z,64.85
2022-08-07T13:44:43.308Z,64.03
2022-08-07T13:48:05.906Z,64.63
2022-08-07T13:50:32.541Z,71.22
2022-08-07T13:53:06.715Z,62.80
2022-08-07T13:55:54.252Z,71.90
2022-08-07T13:58:50.401Z,72.88
2022-08-07T14:01:29.247Z,74.35
2022-08-07T14:04:11.231Z,60.42
2022-08-07T14:06:50.313Z,62.65
2022-08-07T14:10:02.013Z,64.47
2022-08-07T14:12:28.128Z,66.32
2022-08-07T14:15:06.267Z,72.47
2022-08-07T14:18:24.530Z,69.80
2022-08-07T14:20:43.014Z,82.90
2022-08-07T14:23:31.340Z,78.18
2022-08-07T14:26:30.516Z,80.75
2022-08-07T14:30:02.996Z,77.82
2022-08-07T14:31:57.829Z,108.18
2022-08-07T14:34:33.117Z,81.18
2022-08-07T14:37:05.430Z,133.07
2022-08-07T14:40:15.466Z,109.75
2022-08-07T14:43:00.864Z,65.85
2022-08-07T14:45:46.367Z,113.35
2022-08-07T14:48:27.294Z,57.15
2022-08-07T14:51:01.559Z,88.07
2022-08-07T14:56:33.045Z,131.43
2022-08-07T14:59:13.734Z,113.28
2022-08-07T15:01:58.330Z,108.50
2022-08-07T15:04:29.038Z,88.68
2022-08-07T15:07:00.983Z,96.80
2022-08-07T15:09:57.974Z,118.72
2022-08-07T15:12:30.446Z,103.38
2022-08-07T15:15:08.382Z,102.28
2022-08-07T15:17:55.559Z,121.90
2022-08-07T15:20:55.236Z,77.53
2022-08-07T15:25:16.379Z,80.55
2022-08-07T15:26:33.366Z,96.55
2022-08-07T15:30:06.419Z,112.85
2022-08-07T15:32:04.918Z,101.40
2022-08-07T15:38:17.583Z,110.30
2022-08-07T15:43:53.476Z,127.22
2022-08-07T15:46:31.685Z,143.27
2022-08-07T15:52:02.991Z,139.98
2022-08-07T15:54:39.452Z,150.27
2022-08-07T15:57:39.229Z,144.77
2022-08-07T16:00:06.842Z,154.38
2022-08-07T16:02:49.214Z,134.13
2022-08-07T16:05:23.087Z,114.82
2022-08-07T16:08:33.590Z,147.35
2022-08-07T16:11:28.986Z,181.10
2022-08-07T16:14:09.001Z,120.88
2022-08-07T16:18:00.712Z,118.60
2022-08-07T16:20:34.662Z,127.47
2022-08-07T16:23:55.331Z,109.00
2022-08-07T16:26:58.788Z,116.55
2022-08-07T16:30:10.784Z,104.38
2022-08-07T16:32:54.393Z,93.25
2022-08-07T16:35:52.316Z,93.28
2022-08-07T16:39:01.232Z,85.18
2022-08-07T16:42:16.979Z,89.47
2022-08-07T16:45:19.152Z,96.07
2022-08-07T16:48:58.430Z,93.80
2022-08-07T16:51:57.626Z,101.68
2022-08-07T16:54:55.824Z,92.65
2022-08-07T16:58:02.095Z,82.68
2022-08-07T17:00:42.957Z,74.78
2022-08-07T17:03:58.106Z,92.55
2022-08-07T17:06:41.079Z,79.93
2022-08-07T17:10:06.594Z,75.50
2022-08-07T17:12:34.330Z,80.32
2022-08-07T17:15:20.137Z,88.25
2022-08-07T17:17:58.787Z,87.25
2022-08-07T17:20:37.394Z,81.38
2022-08-07T17:23:32.103Z,92.43
2022-08-07T17:26:24.248Z,78.43
2022-08-07T17:29:18.346Z,81.13
2022-08-07T17:32:31.287Z,90.55
2022-08-07T17:35:50.302Z,86.80
2022-08-07T17:38:32.258Z,95.07
2022-08-07T17:42:01.140Z,77.57
2022-08-07T17:44:33.252Z,80.82
2022-08-07T17:47:17.092Z,90.13
2022-08-07T17:50:04.731Z,93.32
2022-08-07T17:52:44.495Z,72.90
2022-08-07T17:56:00.364Z,77.10
2022-08-07T17:58:30.530Z,80.35
2022-08-07T18:01:20.572Z,76.90
2022-08-07T18:04:16.313Z,83.47
2022-08-07T18:07:19.653Z,74.70
2022-08-07T18:10:06.863Z,77.20
2022-08-07T18:13:09.939Z,97.45
2022-08-07T18:16:08.618Z,98.17
2022-08-07T18:21:04.141Z,81.40
2022-08-07T18:21:58.352Z,77.40
2022-08-07T18:24:36.788Z,81.45
2022-08-07T18:27:38.339Z,82.75
2022-08-07T18:30:33.067Z,75.88
2022-08-07T18:33:39.067Z,72.00
2022-08-07T18:36:41.045Z,70.40
2022-08-07T18:40:07.919Z,78.30
2022-08-07T18:42:27.482Z,74.22
2022-08-07T18:45:40.041Z,71.82
2022-08-07T18:48:09.446Z,64.97
2022-08-07T18:51:09.205Z,71.82
2022-08-07T18:54:05.174Z,58.80
2022-08-07T18:57:30.751Z,63.90
2022-08-07T19:00:32.484Z,58.20
2022-08-07T19:03:12.267Z,58.65
2022-08-07T19:06:03.371Z,64.57
2022-08-07T19:09:09.613Z,65.10
2022-08-07T19:12:26.686Z,63.72
2022-08-07T19:16:03.020Z,69.55
2022-08-07T19:18:18.349Z,60.30
2022-08-07T19:21:47.884Z,69.82
2022-08-07T19:24:32.327Z,62.90
2022-08-07T19:28:29.919Z,58.95
2022-08-07T19:31:03.754Z,61.85
2022-08-07T19:32:59.726Z,62.53
2022-08-07T19:35:33.755Z,63.88
2022-08-07T19:38:15.120Z,65.65
2022-08-07T19:40:51.485Z,69.40
2022-08-07T19:43:50.029Z,59.40
2022-08-07T19:46:17.767Z,60.13
2022-08-07T19:48:53.492Z,65.85
2022-08-07T19:51:52.364Z,63.78
2022-08-07T19:54:31.665Z,59.13
2022-08-07T19:58:02.927Z,63.95
2022-08-07T20:00:10.170Z,57.83
2022-08-07T20:02:52.113Z,58.40
2022-08-07T20:05:27.992Z,61.10
2022-08-07T20:08:02.542Z,59.95
2022-08-07T20:10:54.483Z,60.53
2022-08-07T20:13:36.063Z,60.25
2022-08-07T20:16:32.383Z,67.00
2022-08-07T20:19:01.350Z,55.08
2022-08-07T20:21:46.736Z,57.47
2022-08-07T20:24:28.698Z,58.85
2022-08-07T20:27:03.089Z,56.20
2022-08-07T20:29:49.050Z,61.92
2022-08-07T20:32:40.127Z,58.10
2022-08-07T20:35:15.815Z,56.28
2022-08-07T20:37:55.641Z,54.35
2022-08-07T20:40:34.316Z,57.00
2022-08-07T20:43:09.631Z,56.53
2022-08-07T20:46:26.125Z,53.53
2022-08-07T20:49:54.319Z,51.78
2022-08-07T20:51:40.279Z,58.45
2022-08-07T20:54:15.327Z,55.20
2022-08-07T20:57:04.617Z,58.75
2022-08-07T21:00:07.502Z,60.25
2022-08-07T21:02:54.098Z,53.55
2022-08-07T21:05:51.342Z,58.00
2022-08-07T21:08:37.002Z,58.35
2022-08-07T21:11:14.469Z,55.35
2022-08-07T21:14:16.665Z,62.03
2022-08-07T21:16:56.960Z,62.30
2022-08-07T21:19:51.039Z,54.20
2022-08-07T21:22:33.862Z,55.35
2022-08-07T21:25:21.585Z,61.77
2022-08-07T21:28:13.543Z,61.38
2022-08-07T21:30:58.035Z,53.90
2022-08-07T21:33:41.340Z,61.15
2022-08-07T21:36:32.343Z,62.75
2022-08-07T21:39:45.293Z,56.90
2022-08-07T21:42:42.902Z,61.47
2022-08-07T21:46:07.806Z,61.15
2022-08-07T21:48:33.520Z,60.13
2022-08-07T21:51:19.481Z,57.33
2022-08-07T21:54:02.335Z,58.40
2022-08-07T21:56:49.134Z,60.13
2022-08-07T22:00:02.754Z,52.53
2022-08-07T22:02:35.823Z,55.80
2022-08-07T22:05:08.635Z,56.53
2022-08-07T22:07:58.762Z,53.88
2022-08-07T22:10:37.370Z,56.60
2022-08-07T22:13:16.020Z,53.63
2022-08-07T22:16:42.500Z,59.58
2022-08-07T22:18:54.569Z,60.97
2022-08-07T22:22:01.935Z,57.50
2022-08-07T22:24:41.987Z,54.33
2022-08-07T22:27:20.906Z,55.25
2022-08-07T22:30:13.647Z,54.17
2022-08-07T22:33:02.632Z,56.72
2022-08-07T22:35:43.182Z,55.63
2022-08-07T22:38:29.858Z,54.67
2022-08-07T22:41:09.060Z,62.30
2022-08-07T22:43:45.050Z,60.22
2022-08-07T22:47:02.924Z,58.97
2022-08-07T22:49:56.530Z,58.85
2022-08-07T22:52:49.603Z,77.95
2022-08-07T22:55:47.888Z,67.00
2022-08-07T22:58:54.097Z,64.60
2022-08-07T23:01:58.973Z,57.97
2022-08-07T23:06:07.013Z,105.82
2022-08-07T23:08:37.321Z,60.97
2022-08-07T23:11:45.820Z,85.35
2022-08-07T23:14:34.646Z,84.53
2022-08-07T23:17:41.672Z,88.45
2022-08-07T23:20:53.501Z,83.65
2022-08-07T23:24:07.025Z,105.93
2022-08-07T23:27:08.252Z,103.45
2022-08-07T23:30:35.817Z,88.88
2022-08-07T23:34:33.727Z,84.97
2022-08-07T23:37:19.493Z,91.07
2022-08-07T23:39:55.643Z,94.93
2022-08-07T23:42:35.357Z,85.93
2022-08-07T23:45:33.447Z,94.43
2022-08-07T23:48:43.477Z,111.07
2022-08-07T23:53:00.637Z,91.75
2022-08-07T23:54:44.555Z,92.60
2022-08-07T23:57:30.514Z,104.78
